sensor_id;sensor_type;location;lat;lon;timestamp;temperature;humidity
29687;DHT22;16599;47.078;15.536;2023-05-07T00:01:54;13.00;99.90
29687;DHT22;16599;47.078;15.536;2023-05-07T00:04:21;13.00;99.90
29687;DHT22;16599;47.078;15.536;2023-05-07T00:06:48;13.00;99.90
29687;DHT22;16599;47.078;15.536;2023-05-07T00:09:15;13.00;99.90
29687;DHT22;16599;47.078;15.536;2023-05-07T00:11:43;12.80;99.90
29687;DHT22;16599;47.078;15.536;2023-05-07T00:14:09;12.70;99.90
29687;DHT22;16599;47.078;15.536;2023-05-07T00:16:36;12.80;99.90
29687;DHT22;16599;47.078;15.536;2023-05-07T00:19:04;12.90;99.90
29687;DHT22;16599;47.078;15.536;2023-05-07T00:21:30;12.90;99.90
29687;DHT22;16599;47.078;15.536;2023-05-07T00:23:57;12.90;99.90
29687;DHT22;16599;47.078;15.536;2023-05-07T00:26:24;12.80;99.90
29687;DHT22;16599;47.078;15.536;2023-05-07T00:28:51;12.90;99.90
29687;DHT22;16599;47.078;15.536;2023-05-07T00:31:18;12.90;99.90
29687;DHT22;16599;47.078;15.536;2023-05-07T00:33:44;12.90;99.90
29687;DHT22;16599;47.078;15.536;2023-05-07T00:36:11;12.90;99.90
29687;DHT22;16599;47.078;15.536;2023-05-07T00:38:38;13.00;99.90
29687;DHT22;16599;47.078;15.536;2023-05-07T00:41:06;13.00;99.90
29687;DHT22;16599;47.078;15.536;2023-05-07T00:43:33;13.00;99.90
29687;DHT22;16599;47.078;15.536;2023-05-07T00:46:00;13.10;99.90
29687;DHT22;16599;47.078;15.536;2023-05-07T00:48:27;13.00;99.90
29687;DHT22;16599;47.078;15.536;2023-05-07T00:50:54;13.10;99.90
29687;DHT22;16599;47.078;15.536;2023-05-07T00:53:21;13.10;99.90
29687;DHT22;16599;47.078;15.536;2023-05-07T00:55:48;13.10;99.90
29687;DHT22;16599;47.078;15.536;2023-05-07T00:58:16;13.00;99.90
29687;DHT22;16599;47.078;15.536;2023-05-07T01:00:44;13.00;99.90
29687;DHT22;16599;47.078;15.536;2023-05-07T01:03:10;13.00;99.90
29687;DHT22;16599;47.078;15.536;2023-05-07T01:05:38;12.90;99.90
29687;DHT22;16599;47.078;15.536;2023-05-07T01:08:06;12.70;99.90
29687;DHT22;16599;47.078;15.536;2023-05-07T01:10:33;12.70;99.90
29687;DHT22;16599;47.078;15.536;2023-05-07T01:13:00;12.80;99.90
29687;DHT22;16599;47.078;15.536;2023-05-07T01:15:27;12.70;99.90
29687;DHT22;16599;47.078;15.536;2023-05-07T01:17:55;12.70;99.90
29687;DHT22;16599;47.078;15.536;2023-05-07T01:20:23;12.40;99.90
29687;DHT22;16599;47.078;15.536;2023-05-07T01:22:50;12.30;99.90
29687;DHT22;16599;47.078;15.536;2023-05-07T01:25:18;12.30;99.90
29687;DHT22;16599;47.078;15.536;2023-05-07T01:27:45;12.40;99.90
29687;DHT22;16599;47.078;15.536;2023-05-07T01:30:12;12.50;99.90
29687;DHT22;16599;47.078;15.536;2023-05-07T01:32:57;12.20;99.90
29687;DHT22;16599;47.078;15.536;2023-05-07T01:35:30;11.90;99.90
29687;DHT22;16599;47.078;15.536;2023-05-07T01:37:59;11.50;99.90
29687;DHT22;16599;47.078;15.536;2023-05-07T01:40:27;11.70;99.90
29687;DHT22;16599;47.078;15.536;2023-05-07T01:42:54;11.20;99.90
29687;DHT22;16599;47.078;15.536;2023-05-07T01:45:21;11.30;99.90
29687;DHT22;16599;47.078;15.536;2023-05-07T01:47:49;11.60;99.90
29687;DHT22;16599;47.078;15.536;2023-05-07T01:50:17;11.70;99.90
29687;DHT22;16599;47.078;15.536;2023-05-07T01:52:44;11.10;99.90
29687;DHT22;16599;47.078;15.536;2023-05-07T01:55:11;11.30;99.90
29687;DHT22;16599;47.078;15.536;2023-05-07T01:57:39;11.20;99.90
29687;DHT22;16599;47.078;15.536;2023-05-07T02:00:07;11.10;99.90
29687;DHT22;16599;47.078;15.536;2023-05-07T02:02:35;10.80;99.90
29687;DHT22;16599;47.078;15.536;2023-05-07T02:05:03;10.80;99.90
29687;DHT22;16599;47.078;15.536;2023-05-07T02:07:29;10.40;99.90
29687;DHT22;16599;47.078;15.536;2023-05-07T02:09:56;10.60;99.90
29687;DHT22;16599;47.078;15.536;2023-05-07T02:12:23;10.70;99.90
29687;DHT22;16599;47.078;15.536;2023-05-07T02:14:50;10.30;99.90
29687;DHT22;16599;47.078;15.536;2023-05-07T02:17:17;10.40;99.90
29687;DHT22;16599;47.078;15.536;2023-05-07T02:19:44;10.50;99.90
29687;DHT22;16599;47.078;15.536;2023-05-07T02:22:10;10.30;99.90
29687;DHT22;16599;47.078;15.536;2023-05-07T02:24:37;10.50;99.90
29687;DHT22;16599;47.078;15.536;2023-05-07T02:27:04;10.70;99.90
29687;DHT22;16599;47.078;15.536;2023-05-07T02:29:31;10.70;99.90
29687;DHT22;16599;47.078;15.536;2023-05-07T02:31:58;10.80;99.90
29687;DHT22;16599;47.078;15.536;2023-05-07T02:34:25;10.80;99.90
29687;DHT22;16599;47.078;15.536;2023-05-07T02:36:52;10.90;99.90
29687;DHT22;16599;47.078;15.536;2023-05-07T02:39:18;10.90;99.90
29687;DHT22;16599;47.078;15.536;2023-05-07T02:41:45;11.00;99.90
29687;DHT22;16599;47.078;15.536;2023-05-07T02:44:12;10.60;99.90
29687;DHT22;16599;47.078;15.536;2023-05-07T02:46:39;10.50;99.90
29687;DHT22;16599;47.078;15.536;2023-05-07T02:49:06;10.50;99.90
29687;DHT22;16599;47.078;15.536;2023-05-07T02:51:33;10.10;99.90
29687;DHT22;16599;47.078;15.536;2023-05-07T02:54:00;9.70;99.90
29687;DHT22;16599;47.078;15.536;2023-05-07T02:56:27;10.00;99.90
29687;DHT22;16599;47.078;15.536;2023-05-07T02:58:54;10.10;99.90
29687;DHT22;16599;47.078;15.536;2023-05-07T03:01:21;10.20;99.90
29687;DHT22;16599;47.078;15.536;2023-05-07T03:03:48;10.20;99.90
29687;DHT22;16599;47.078;15.536;2023-05-07T03:06:15;10.20;99.90
29687;DHT22;16599;47.078;15.536;2023-05-07T03:08:42;10.10;99.90
29687;DHT22;16599;47.078;15.536;2023-05-07T03:11:08;10.40;99.90
29687;DHT22;16599;47.078;15.536;2023-05-07T03:13:35;9.90;99.90
29687;DHT22;16599;47.078;15.536;2023-05-07T03:16:02;10.00;99.90
29687;DHT22;16599;47.078;15.536;2023-05-07T03:18:29;10.10;99.90
29687;DHT22;16599;47.078;15.536;2023-05-07T03:20:56;10.20;99.90
29687;DHT22;16599;47.078;15.536;2023-05-07T03:23:23;10.30;99.90
29687;DHT22;16599;47.078;15.536;2023-05-07T03:25:50;10.40;99.90
29687;DHT22;16599;47.078;15.536;2023-05-07T03:28:17;10.20;99.90
29687;DHT22;16599;47.078;15.536;2023-05-07T03:30:44;9.90;99.90
29687;DHT22;16599;47.078;15.536;2023-05-07T03:33:11;9.70;99.90
29687;DHT22;16599;47.078;15.536;2023-05-07T03:35:38;9.60;99.90
29687;DHT22;16599;47.078;15.536;2023-05-07T03:38:05;9.70;99.90
29687;DHT22;16599;47.078;15.536;2023-05-07T03:40:32;9.60;99.90
29687;DHT22;16599;47.078;15.536;2023-05-07T03:42:59;9.80;99.90
29687;DHT22;16599;47.078;15.536;2023-05-07T03:45:26;10.00;99.90
29687;DHT22;16599;47.078;15.536;2023-05-07T03:47:53;10.10;99.90
29687;DHT22;16599;47.078;15.536;2023-05-07T03:50:20;9.90;99.90
29687;DHT22;16599;47.078;15.536;2023-05-07T03:52:47;9.60;99.90
29687;DHT22;16599;47.078;15.536;2023-05-07T03:55:14;9.80;99.90
29687;DHT22;16599;47.078;15.536;2023-05-07T03:57:41;10.00;99.90
29687;DHT22;16599;47.078;15.536;2023-05-07T04:00:08;10.00;99.90
29687;DHT22;16599;47.078;15.536;2023-05-07T04:02:36;9.90;99.90
29687;DHT22;16599;47.078;15.536;2023-05-07T04:05:03;10.10;99.90
29687;DHT22;16599;47.078;15.536;2023-05-07T04:07:30;10.20;99.90
29687;DHT22;16599;47.078;15.536;2023-05-07T04:09:57;10.20;99.90
29687;DHT22;16599;47.078;15.536;2023-05-07T04:12:24;10.10;99.90
29687;DHT22;16599;47.078;15.536;2023-05-07T04:14:51;10.20;99.90
29687;DHT22;16599;47.078;15.536;2023-05-07T04:17:17;10.20;99.90
29687;DHT22;16599;47.078;15.536;2023-05-07T04:19:44;10.30;99.90
29687;DHT22;16599;47.078;15.536;2023-05-07T04:22:12;10.40;99.90
29687;DHT22;16599;47.078;15.536;2023-05-07T04:24:39;10.40;99.90
29687;DHT22;16599;47.078;15.536;2023-05-07T04:27:06;10.50;99.90
29687;DHT22;16599;47.078;15.536;2023-05-07T04:29:33;10.40;99.90
29687;DHT22;16599;47.078;15.536;2023-05-07T04:31:59;10.50;99.90
29687;DHT22;16599;47.078;15.536;2023-05-07T04:34:27;10.60;99.90
29687;DHT22;16599;47.078;15.536;2023-05-07T04:36:53;10.60;99.90
29687;DHT22;16599;47.078;15.536;2023-05-07T04:39:20;10.70;99.90
29687;DHT22;16599;47.078;15.536;2023-05-07T04:41:47;10.80;99.90
29687;DHT22;16599;47.078;15.536;2023-05-07T04:44:14;10.80;99.90
29687;DHT22;16599;47.078;15.536;2023-05-07T04:46:41;10.90;99.90
29687;DHT22;16599;47.078;15.536;2023-05-07T04:49:08;10.80;99.90
29687;DHT22;16599;47.078;15.536;2023-05-07T04:51:34;10.90;99.90
29687;DHT22;16599;47.078;15.536;2023-05-07T04:54:01;11.10;99.90
29687;DHT22;16599;47.078;15.536;2023-05-07T04:56:29;11.10;99.90
29687;DHT22;16599;47.078;15.536;2023-05-07T04:58:58;11.20;99.90
29687;DHT22;16599;47.078;15.536;2023-05-07T05:01:25;11.30;99.90
29687;DHT22;16599;47.078;15.536;2023-05-07T05:03:52;11.40;99.90
29687;DHT22;16599;47.078;15.536;2023-05-07T05:06:19;11.30;99.90
29687;DHT22;16599;47.078;15.536;2023-05-07T05:08:46;11.30;99.90
29687;DHT22;16599;47.078;15.536;2023-05-07T05:11:13;11.50;99.90
29687;DHT22;16599;47.078;15.536;2023-05-07T05:13:40;11.60;99.90
29687;DHT22;16599;47.078;15.536;2023-05-07T05:16:07;11.80;99.90
29687;DHT22;16599;47.078;15.536;2023-05-07T05:18:34;11.90;99.90
29687;DHT22;16599;47.078;15.536;2023-05-07T05:21:01;12.00;99.90
29687;DHT22;16599;47.078;15.536;2023-05-07T05:23:28;12.10;99.90
29687;DHT22;16599;47.078;15.536;2023-05-07T05:25:56;12.20;99.90
29687;DHT22;16599;47.078;15.536;2023-05-07T05:28:24;12.30;99.90
29687;DHT22;16599;47.078;15.536;2023-05-07T05:30:51;12.40;99.90
29687;DHT22;16599;47.078;15.536;2023-05-07T05:33:18;12.50;99.90
29687;DHT22;16599;47.078;15.536;2023-05-07T05:35:44;12.60;99.90
29687;DHT22;16599;47.078;15.536;2023-05-07T05:38:11;12.70;99.90
29687;DHT22;16599;47.078;15.536;2023-05-07T05:40:38;12.80;99.90
29687;DHT22;16599;47.078;15.536;2023-05-07T05:43:05;12.90;99.90
29687;DHT22;16599;47.078;15.536;2023-05-07T05:45:32;12.90;99.90
29687;DHT22;16599;47.078;15.536;2023-05-07T05:47:59;13.00;99.90
29687;DHT22;16599;47.078;15.536;2023-05-07T05:50:26;13.10;99.90
29687;DHT22;16599;47.078;15.536;2023-05-07T05:52:53;13.10;99.90
29687;DHT22;16599;47.078;15.536;2023-05-07T05:55:20;13.20;99.90
29687;DHT22;16599;47.078;15.536;2023-05-07T05:57:48;13.30;99.90
29687;DHT22;16599;47.078;15.536;2023-05-07T06:00:15;13.40;99.90
29687;DHT22;16599;47.078;15.536;2023-05-07T06:02:43;13.50;99.90
29687;DHT22;16599;47.078;15.536;2023-05-07T06:05:10;13.60;99.90
29687;DHT22;16599;47.078;15.536;2023-05-07T06:07:37;13.60;99.90
29687;DHT22;16599;47.078;15.536;2023-05-07T06:10:04;13.60;99.90
29687;DHT22;16599;47.078;15.536;2023-05-07T06:12:31;13.60;99.90
29687;DHT22;16599;47.078;15.536;2023-05-07T06:14:58;13.70;99.90
29687;DHT22;16599;47.078;15.536;2023-05-07T06:17:25;13.70;99.90
29687;DHT22;16599;47.078;15.536;2023-05-07T06:19:52;13.80;99.90
29687;DHT22;16599;47.078;15.536;2023-05-07T06:22:19;13.90;99.90
29687;DHT22;16599;47.078;15.536;2023-05-07T06:24:46;14.00;99.90
29687;DHT22;16599;47.078;15.536;2023-05-07T06:27:13;14.00;99.90
29687;DHT22;16599;47.078;15.536;2023-05-07T06:29:40;14.30;99.90
29687;DHT22;16599;47.078;15.536;2023-05-07T06:32:15;14.40;99.90
29687;DHT22;16599;47.078;15.536;2023-05-07T06:34:43;14.40;99.90
29687;DHT22;16599;47.078;15.536;2023-05-07T06:37:10;14.60;99.90
29687;DHT22;16599;47.078;15.536;2023-05-07T06:39:37;14.90;99.90
29687;DHT22;16599;47.078;15.536;2023-05-07T06:42:04;14.90;99.90
29687;DHT22;16599;47.078;15.536;2023-05-07T06:44:31;15.10;99.90
29687;DHT22;16599;47.078;15.536;2023-05-07T06:46:58;15.20;99.90
29687;DHT22;16599;47.078;15.536;2023-05-07T06:49:25;15.10;99.90
29687;DHT22;16599;47.078;15.536;2023-05-07T06:51:52;15.20;99.90
29687;DHT22;16599;47.078;15.536;2023-05-07T06:54:19;15.20;99.90
29687;DHT22;16599;47.078;15.536;2023-05-07T06:56:46;15.10;99.90
29687;DHT22;16599;47.078;15.536;2023-05-07T06:59:13;15.10;99.90
29687;DHT22;16599;47.078;15.536;2023-05-07T07:01:40;15.30;99.90
29687;DHT22;16599;47.078;15.536;2023-05-07T07:04:07;15.20;99.90
29687;DHT22;16599;47.078;15.536;2023-05-07T07:06:34;15.40;99.90
29687;DHT22;16599;47.078;15.536;2023-05-07T07:09:01;15.30;99.90
29687;DHT22;16599;47.078;15.536;2023-05-07T07:11:28;15.50;99.90
29687;DHT22;16599;47.078;15.536;2023-05-07T07:13:55;15.40;99.90
29687;DHT22;16599;47.078;15.536;2023-05-07T07:16:25;15.60;99.90
29687;DHT22;16599;47.078;15.536;2023-05-07T07:18:51;15.90;99.90
29687;DHT22;16599;47.078;15.536;2023-05-07T07:21:18;16.00;99.90
29687;DHT22;16599;47.078;15.536;2023-05-07T07:23:45;15.80;99.90
29687;DHT22;16599;47.078;15.536;2023-05-07T07:26:12;15.90;99.90
29687;DHT22;16599;47.078;15.536;2023-05-07T07:28:43;15.80;99.90
29687;DHT22;16599;47.078;15.536;2023-05-07T07:31:11;15.70;99.90
29687;DHT22;16599;47.078;15.536;2023-05-07T07:33:38;16.00;99.90
29687;DHT22;16599;47.078;15.536;2023-05-07T07:36:06;16.00;99.90
29687;DHT22;16599;47.078;15.536;2023-05-07T07:38:33;16.10;99.90
29687;DHT22;16599;47.078;15.536;2023-05-07T07:41:01;16.30;99.90
29687;DHT22;16599;47.078;15.536;2023-05-07T07:43:28;16.20;99.90
29687;DHT22;16599;47.078;15.536;2023-05-07T07:45:55;16.20;99.90
29687;DHT22;16599;47.078;15.536;2023-05-07T07:48:22;16.20;99.90
29687;DHT22;16599;47.078;15.536;2023-05-07T07:50:49;16.20;99.90
29687;DHT22;16599;47.078;15.536;2023-05-07T07:53:18;16.60;99.90
29687;DHT22;16599;47.078;15.536;2023-05-07T07:55:45;16.60;99.90
29687;DHT22;16599;47.078;15.536;2023-05-07T07:58:12;16.50;99.90
29687;DHT22;16599;47.078;15.536;2023-05-07T08:00:39;16.50;99.90
29687;DHT22;16599;47.078;15.536;2023-05-07T08:03:08;16.60;99.90
29687;DHT22;16599;47.078;15.536;2023-05-07T08:05:35;16.80;99.90
29687;DHT22;16599;47.078;15.536;2023-05-07T08:08:03;17.00;99.90
29687;DHT22;16599;47.078;15.536;2023-05-07T08:10:30;16.60;99.90
29687;DHT22;16599;47.078;15.536;2023-05-07T08:13:00;16.70;99.90
29687;DHT22;16599;47.078;15.536;2023-05-07T08:15:28;16.70;99.90
29687;DHT22;16599;47.078;15.536;2023-05-07T08:17:55;16.60;99.90
29687;DHT22;16599;47.078;15.536;2023-05-07T08:20:24;16.80;99.90
29687;DHT22;16599;47.078;15.536;2023-05-07T08:22:51;17.20;99.90
29687;DHT22;16599;47.078;15.536;2023-05-07T08:25:18;17.10;99.90
29687;DHT22;16599;47.078;15.536;2023-05-07T08:27:45;16.80;99.90
29687;DHT22;16599;47.078;15.536;2023-05-07T08:30:12;16.60;99.90
29687;DHT22;16599;47.078;15.536;2023-05-07T08:32:39;16.60;99.90
29687;DHT22;16599;47.078;15.536;2023-05-07T08:35:07;16.80;99.90
29687;DHT22;16599;47.078;15.536;2023-05-07T08:37:34;16.60;99.90
29687;DHT22;16599;47.078;15.536;2023-05-07T08:40:00;16.70;99.90
29687;DHT22;16599;47.078;15.536;2023-05-07T08:42:28;16.90;99.90
29687;DHT22;16599;47.078;15.536;2023-05-07T08:44:57;17.00;99.90
29687;DHT22;16599;47.078;15.536;2023-05-07T08:47:30;16.90;99.90
29687;DHT22;16599;47.078;15.536;2023-05-07T08:49:59;16.80;99.90
29687;DHT22;16599;47.078;15.536;2023-05-07T08:52:27;16.90;99.90
29687;DHT22;16599;47.078;15.536;2023-05-07T08:54:53;16.90;99.90
29687;DHT22;16599;47.078;15.536;2023-05-07T08:57:20;16.80;99.90
29687;DHT22;16599;47.078;15.536;2023-05-07T08:59:48;16.90;99.90
29687;DHT22;16599;47.078;15.536;2023-05-07T09:02:15;17.10;99.90
29687;DHT22;16599;47.078;15.536;2023-05-07T09:04:43;17.30;99.90
29687;DHT22;16599;47.078;15.536;2023-05-07T09:07:09;17.80;99.90
29687;DHT22;16599;47.078;15.536;2023-05-07T09:09:37;17.80;99.90
29687;DHT22;16599;47.078;15.536;2023-05-07T09:12:04;17.90;99.90
29687;DHT22;16599;47.078;15.536;2023-05-07T09:14:31;18.10;99.90
29687;DHT22;16599;47.078;15.536;2023-05-07T09:16:58;18.50;99.90
29687;DHT22;16599;47.078;15.536;2023-05-07T09:19:25;18.30;99.10
29687;DHT22;16599;47.078;15.536;2023-05-07T09:22:03;17.80;99.90
29687;DHT22;16599;47.078;15.536;2023-05-07T09:24:31;18.10;99.90
29687;DHT22;16599;47.078;15.536;2023-05-07T09:27:02;18.10;99.90
29687;DHT22;16599;47.078;15.536;2023-05-07T09:29:29;18.00;99.90
29687;DHT22;16599;47.078;15.536;2023-05-07T09:31:56;17.70;99.90
29687;DHT22;16599;47.078;15.536;2023-05-07T09:34:23;17.80;99.90
29687;DHT22;16599;47.078;15.536;2023-05-07T09:36:50;17.80;99.90
29687;DHT22;16599;47.078;15.536;2023-05-07T09:39:17;18.40;99.90
29687;DHT22;16599;47.078;15.536;2023-05-07T09:41:45;18.90;99.70
29687;DHT22;16599;47.078;15.536;2023-05-07T09:44:13;19.00;95.90
29687;DHT22;16599;47.078;15.536;2023-05-07T09:46:43;19.00;96.00
29687;DHT22;16599;47.078;15.536;2023-05-07T09:49:21;18.80;96.50
29687;DHT22;16599;47.078;15.536;2023-05-07T09:51:51;18.70;97.10
29687;DHT22;16599;47.078;15.536;2023-05-07T09:54:18;18.70;97.60
29687;DHT22;16599;47.078;15.536;2023-05-07T09:56:48;18.50;97.10
29687;DHT22;16599;47.078;15.536;2023-05-07T09:59:16;19.00;99.10
29687;DHT22;16599;47.078;15.536;2023-05-07T10:01:44;19.10;97.30
29687;DHT22;16599;47.078;15.536;2023-05-07T10:04:12;19.50;94.50
29687;DHT22;16599;47.078;15.536;2023-05-07T10:06:40;19.50;94.00
29687;DHT22;16599;47.078;15.536;2023-05-07T10:09:07;19.30;93.10
29687;DHT22;16599;47.078;15.536;2023-05-07T10:11:36;19.30;95.20
29687;DHT22;16599;47.078;15.536;2023-05-07T10:14:04;19.30;94.10
29687;DHT22;16599;47.078;15.536;2023-05-07T10:16:34;19.70;94.50
29687;DHT22;16599;47.078;15.536;2023-05-07T10:19:08;20.30;93.60
29687;DHT22;16599;47.078;15.536;2023-05-07T10:21:37;20.70;93.00
29687;DHT22;16599;47.078;15.536;2023-05-07T10:24:10;20.30;93.10
29687;DHT22;16599;47.078;15.536;2023-05-07T10:26:43;20.00;91.70
29687;DHT22;16599;47.078;15.536;2023-05-07T10:34:50;20.50;92.70
29687;DHT22;16599;47.078;15.536;2023-05-07T10:37:22;20.50;93.20
29687;DHT22;16599;47.078;15.536;2023-05-07T10:39:49;20.00;90.10
29687;DHT22;16599;47.078;15.536;2023-05-07T10:42:16;19.70;91.00
29687;DHT22;16599;47.078;15.536;2023-05-07T10:44:43;19.50;90.50
29687;DHT22;16599;47.078;15.536;2023-05-07T10:47:12;19.50;89.60
29687;DHT22;16599;47.078;15.536;2023-05-07T10:52:32;19.10;93.30
29687;DHT22;16599;47.078;15.536;2023-05-07T10:57:41;18.70;92.30
29687;DHT22;16599;47.078;15.536;2023-05-07T11:03:07;18.80;93.70
29687;DHT22;16599;47.078;15.536;2023-05-07T11:05:35;18.70;94.20
29687;DHT22;16599;47.078;15.536;2023-05-07T11:08:04;18.90;93.10
29687;DHT22;16599;47.078;15.536;2023-05-07T11:10:55;19.30;92.70
29687;DHT22;16599;47.078;15.536;2023-05-07T11:13:42;19.70;93.00
29687;DHT22;16599;47.078;15.536;2023-05-07T11:16:22;19.80;91.90
29687;DHT22;16599;47.078;15.536;2023-05-07T11:18:52;19.50;90.80
29687;DHT22;16599;47.078;15.536;2023-05-07T11:21:33;19.60;91.50
29687;DHT22;16599;47.078;15.536;2023-05-07T11:24:02;19.70;91.10
29687;DHT22;16599;47.078;15.536;2023-05-07T11:26:50;19.50;92.00
29687;DHT22;16599;47.078;15.536;2023-05-07T11:29:22;19.60;92.20
29687;DHT22;16599;47.078;15.536;2023-05-07T11:31:51;19.30;91.50
29687;DHT22;16599;47.078;15.536;2023-05-07T11:34:22;19.80;91.60
29687;DHT22;16599;47.078;15.536;2023-05-07T11:36:50;19.70;91.00
29687;DHT22;16599;47.078;15.536;2023-05-07T11:41:51;20.00;90.70
29687;DHT22;16599;47.078;15.536;2023-05-07T11:44:19;19.70;92.90
29687;DHT22;16599;47.078;15.536;2023-05-07T11:46:46;20.20;89.40
29687;DHT22;16599;47.078;15.536;2023-05-07T11:49:13;20.60;90.20
29687;DHT22;16599;47.078;15.536;2023-05-07T11:51:40;21.10;87.90
29687;DHT22;16599;47.078;15.536;2023-05-07T11:54:09;21.20;85.50
29687;DHT22;16599;47.078;15.536;2023-05-07T11:56:38;21.20;85.30
29687;DHT22;16599;47.078;15.536;2023-05-07T11:59:05;21.30;83.50
29687;DHT22;16599;47.078;15.536;2023-05-07T12:01:35;21.00;82.80
29687;DHT22;16599;47.078;15.536;2023-05-07T12:04:03;20.50;85.60
29687;DHT22;16599;47.078;15.536;2023-05-07T12:06:36;20.50;87.70
29687;DHT22;16599;47.078;15.536;2023-05-07T12:09:04;20.20;85.50
29687;DHT22;16599;47.078;15.536;2023-05-07T12:11:31;19.70;87.80
29687;DHT22;16599;47.078;15.536;2023-05-07T12:13:58;20.00;88.80
29687;DHT22;16599;47.078;15.536;2023-05-07T12:16:26;20.20;87.50
29687;DHT22;16599;47.078;15.536;2023-05-07T12:18:53;20.20;85.50
29687;DHT22;16599;47.078;15.536;2023-05-07T12:21:22;20.40;88.10
29687;DHT22;16599;47.078;15.536;2023-05-07T12:23:49;21.00;88.30
29687;DHT22;16599;47.078;15.536;2023-05-07T12:26:17;21.00;85.70
29687;DHT22;16599;47.078;15.536;2023-05-07T12:28:46;21.10;83.10
29687;DHT22;16599;47.078;15.536;2023-05-07T12:31:14;20.80;83.40
29687;DHT22;16599;47.078;15.536;2023-05-07T12:33:41;20.40;83.60
29687;DHT22;16599;47.078;15.536;2023-05-07T12:36:09;20.00;88.20
29687;DHT22;16599;47.078;15.536;2023-05-07T12:38:39;20.20;88.20
29687;DHT22;16599;47.078;15.536;2023-05-07T12:41:08;20.30;86.10
29687;DHT22;16599;47.078;15.536;2023-05-07T12:43:35;20.20;87.90
29687;DHT22;16599;47.078;15.536;2023-05-07T12:46:05;20.10;84.30
29687;DHT22;16599;47.078;15.536;2023-05-07T12:48:33;19.90;85.20
29687;DHT22;16599;47.078;15.536;2023-05-07T12:51:00;19.90;88.40
29687;DHT22;16599;47.078;15.536;2023-05-07T12:53:29;20.10;88.10
29687;DHT22;16599;47.078;15.536;2023-05-07T12:55:58;19.90;86.40
29687;DHT22;16599;47.078;15.536;2023-05-07T12:58:28;19.80;88.10
29687;DHT22;16599;47.078;15.536;2023-05-07T13:00:57;19.70;89.20
29687;DHT22;16599;47.078;15.536;2023-05-07T13:03:31;19.80;88.80
29687;DHT22;16599;47.078;15.536;2023-05-07T13:05:59;19.40;90.40
29687;DHT22;16599;47.078;15.536;2023-05-07T13:08:44;19.40;90.90
29687;DHT22;16599;47.078;15.536;2023-05-07T13:11:12;19.00;94.00
29687;DHT22;16599;47.078;15.536;2023-05-07T13:13:40;18.70;96.30
29687;DHT22;16599;47.078;15.536;2023-05-07T13:16:10;18.40;96.70
29687;DHT22;16599;47.078;15.536;2023-05-07T13:18:39;18.30;98.10
29687;DHT22;16599;47.078;15.536;2023-05-07T13:21:07;17.90;98.70
29687;DHT22;16599;47.078;15.536;2023-05-07T13:23:34;17.40;99.90
29687;DHT22;16599;47.078;15.536;2023-05-07T13:26:02;17.10;99.90
29687;DHT22;16599;47.078;15.536;2023-05-07T13:28:44;16.80;99.90
29687;DHT22;16599;47.078;15.536;2023-05-07T13:31:11;16.60;99.90
29687;DHT22;16599;47.078;15.536;2023-05-07T13:33:37;16.50;99.90
29687;DHT22;16599;47.078;15.536;2023-05-07T13:36:05;16.20;99.90
29687;DHT22;16599;47.078;15.536;2023-05-07T13:38:32;16.10;99.90
29687;DHT22;16599;47.078;15.536;2023-05-07T13:40:59;16.00;99.90
29687;DHT22;16599;47.078;15.536;2023-05-07T13:43:25;15.90;99.90
29687;DHT22;16599;47.078;15.536;2023-05-07T13:45:52;15.70;99.90
29687;DHT22;16599;47.078;15.536;2023-05-07T13:48:19;15.70;99.90
29687;DHT22;16599;47.078;15.536;2023-05-07T13:50:46;15.60;99.90
29687;DHT22;16599;47.078;15.536;2023-05-07T13:53:13;15.50;99.90
29687;DHT22;16599;47.078;15.536;2023-05-07T13:55:42;15.30;99.90
29687;DHT22;16599;47.078;15.536;2023-05-07T13:58:09;15.20;99.90
29687;DHT22;16599;47.078;15.536;2023-05-07T14:00:36;15.30;99.90
29687;DHT22;16599;47.078;15.536;2023-05-07T14:03:04;15.30;99.90
29687;DHT22;16599;47.078;15.536;2023-05-07T14:05:31;15.40;99.90
29687;DHT22;16599;47.078;15.536;2023-05-07T14:07:58;15.30;99.90
29687;DHT22;16599;47.078;15.536;2023-05-07T14:10:25;15.40;99.90
29687;DHT22;16599;47.078;15.536;2023-05-07T14:12:52;15.50;99.90
29687;DHT22;16599;47.078;15.536;2023-05-07T14:15:19;15.50;99.90
29687;DHT22;16599;47.078;15.536;2023-05-07T14:17:46;15.30;99.90
29687;DHT22;16599;47.078;15.536;2023-05-07T14:20:13;15.00;99.90
29687;DHT22;16599;47.078;15.536;2023-05-07T14:22:41;14.90;99.90
29687;DHT22;16599;47.078;15.536;2023-05-07T14:25:08;14.70;99.90
29687;DHT22;16599;47.078;15.536;2023-05-07T14:27:36;14.80;99.90
29687;DHT22;16599;47.078;15.536;2023-05-07T14:30:04;14.70;99.90
29687;DHT22;16599;47.078;15.536;2023-05-07T14:32:31;14.60;99.90
29687;DHT22;16599;47.078;15.536;2023-05-07T14:34:58;14.50;99.90
29687;DHT22;16599;47.078;15.536;2023-05-07T14:37:25;14.60;99.90
29687;DHT22;16599;47.078;15.536;2023-05-07T14:39:52;14.70;99.90
29687;DHT22;16599;47.078;15.536;2023-05-07T14:42:18;14.60;99.90
29687;DHT22;16599;47.078;15.536;2023-05-07T14:44:46;14.60;99.90
29687;DHT22;16599;47.078;15.536;2023-05-07T14:47:14;14.70;99.90
29687;DHT22;16599;47.078;15.536;2023-05-07T14:49:45;14.60;99.90
29687;DHT22;16599;47.078;15.536;2023-05-07T14:52:12;14.70;99.90
29687;DHT22;16599;47.078;15.536;2023-05-07T14:54:38;14.60;99.90
29687;DHT22;16599;47.078;15.536;2023-05-07T14:57:06;14.60;99.90
29687;DHT22;16599;47.078;15.536;2023-05-07T14:59:33;14.70;99.90
29687;DHT22;16599;47.078;15.536;2023-05-07T15:02:00;14.80;99.90
29687;DHT22;16599;47.078;15.536;2023-05-07T15:04:32;14.90;99.90
29687;DHT22;16599;47.078;15.536;2023-05-07T15:06:59;14.90;99.90
29687;DHT22;16599;47.078;15.536;2023-05-07T15:09:26;14.80;99.90
29687;DHT22;16599;47.078;15.536;2023-05-07T15:11:53;14.90;99.90
29687;DHT22;16599;47.078;15.536;2023-05-07T15:14:20;14.90;99.90
29687;DHT22;16599;47.078;15.536;2023-05-07T15:16:48;14.90;99.90
29687;DHT22;16599;47.078;15.536;2023-05-07T15:19:16;14.80;99.90
29687;DHT22;16599;47.078;15.536;2023-05-07T15:21:43;14.90;99.90
29687;DHT22;16599;47.078;15.536;2023-05-07T15:24:10;15.00;99.90
29687;DHT22;16599;47.078;15.536;2023-05-07T15:26:37;15.00;99.90
29687;DHT22;16599;47.078;15.536;2023-05-07T15:29:04;15.00;99.90
29687;DHT22;16599;47.078;15.536;2023-05-07T15:31:37;14.90;99.90
29687;DHT22;16599;47.078;15.536;2023-05-07T15:34:05;14.90;99.90
29687;DHT22;16599;47.078;15.536;2023-05-07T15:36:32;15.00;99.90
29687;DHT22;16599;47.078;15.536;2023-05-07T15:38:59;15.10;99.90